Terminal Aerodrome Forecast
Issued by NWS Wakefield, VA

Home | Current Version | Previous Version | Text Only | Print | Product List | Glossary On
Versions: 1 2 3 4 5 6 7 8 9 10 11 12 13 14 15 16 17 18 19 20 21 22 23 24 25 26 27
000
FTUS41 KAKQ 030527
TAFECG
TAF
KECG 030527Z 0306/0406 29009KT P6SM SCT060 BKN120
      TEMPO 0307/0311 4SM BR
     FM031100 00000KT 2SM BR SCT250
     FM031300 31006KT P6SM SCT250
     FM031700 13005KT P6SM SCT050
     FM040000 17003KT P6SM SKC=

USA.gov is the U.S. government's official web portal to all federal, state and local government web resources and services.